createdAt,value
2023-09-27T00:00:15.221Z,64.23
2023-09-27T00:01:18.829Z,64.45
2023-09-27T00:02:24.365Z,64.24
2023-09-27T00:03:28.376Z,64.58
2023-09-27T00:04:30.888Z,64.48
2023-09-27T00:05:34.976Z,64.73
2023-09-27T00:06:38.164Z,64.54
2023-09-27T00:07:42.677Z,64.70
2023-09-27T00:08:46.554Z,64.40
2023-09-27T00:09:49.359Z,64.48
2023-09-27T00:10:53.033Z,64.48
2023-09-27T00:11:55.615Z,64.43
2023-09-27T00:12:58.038Z,64.49
2023-09-27T00:14:00.487Z,64.37
2023-09-27T00:15:03.666Z,64.64
2023-09-27T00:16:06.170Z,64.39
2023-09-27T00:17:13.120Z,64.43
2023-09-27T00:18:16.369Z,64.74
2023-09-27T00:19:23.177Z,64.76
2023-09-27T00:20:26.049Z,64.70
2023-09-27T00:21:31.792Z,64.82
2023-09-27T00:22:36.463Z,64.92
2023-09-27T00:23:38.849Z,64.72
2023-09-27T00:24:41.404Z,64.80
2023-09-27T00:25:44.144Z,64.94
2023-09-27T00:26:46.601Z,64.93
2023-09-27T00:27:49.065Z,64.62
2023-09-27T00:28:52.184Z,64.85
2023-09-27T00:29:54.971Z,64.77
2023-09-27T00:30:57.710Z,64.83
2023-09-27T00:32:00.711Z,64.91
2023-09-27T00:33:06.088Z,64.97
2023-09-27T00:34:08.600Z,64.67
2023-09-27T00:35:13.913Z,64.79
2023-09-27T00:36:17.422Z,64.54
2023-09-27T00:37:20.997Z,64.67
2023-09-27T00:38:23.615Z,64.94
2023-09-27T00:39:26.111Z,64.86
2023-09-27T00:40:28.603Z,64.73
2023-09-27T00:41:31.099Z,64.59
2023-09-27T00:42:33.477Z,64.64
2023-09-27T00:43:36.482Z,64.60
2023-09-27T00:44:39.083Z,64.58
2023-09-27T00:45:41.563Z,64.72
2023-09-27T00:46:45.372Z,64.48
2023-09-27T00:47:49.355Z,64.72
2023-09-27T00:48:52.564Z,64.90
2023-09-27T00:49:55.209Z,65.06
2023-09-27T00:51:00.217Z,64.88
2023-09-27T00:52:03.475Z,64.99
2023-09-27T00:53:07.391Z,64.97
2023-09-27T00:54:11.526Z,64.84
2023-09-27T00:55:18.048Z,64.90
2023-09-27T00:56:20.634Z,64.75
2023-09-27T00:57:23.810Z,64.71
2023-09-27T00:58:27.095Z,64.57
2023-09-27T00:59:30.430Z,64.69
2023-09-27T01:00:34.631Z,64.62
2023-09-27T01:01:39.265Z,64.65
2023-09-27T01:02:42.667Z,64.68
2023-09-27T01:03:45.802Z,64.66
2023-09-27T01:04:52.188Z,64.48
2023-09-27T01:05:54.665Z,64.44
2023-09-27T01:06:57.120Z,64.63
2023-09-27T01:07:59.750Z,64.43
2023-09-27T01:09:02.532Z,64.72
2023-09-27T01:10:05.815Z,64.72
2023-09-27T01:11:08.544Z,64.60
2023-09-27T01:12:10.941Z,64.49
2023-09-27T01:13:16.053Z,64.66
2023-09-27T01:14:19.128Z,64.57
2023-09-27T01:15:21.633Z,64.82
2023-09-27T01:16:25.136Z,64.83
2023-09-27T01:17:27.587Z,64.77
2023-09-27T01:18:30.002Z,64.76
2023-09-27T01:19:32.369Z,64.73
2023-09-27T01:20:36.137Z,64.51
2023-09-27T01:21:38.564Z,64.59
2023-09-27T01:22:41.092Z,64.84
2023-09-27T01:23:44.820Z,64.56
2023-09-27T01:24:49.378Z,64.87
2023-09-27T01:26:00.674Z,64.74
2023-09-27T01:27:07.042Z,64.66
2023-09-27T01:28:11.985Z,64.54
2023-09-27T01:29:14.512Z,64.69
2023-09-27T01:30:16.919Z,64.70
2023-09-27T01:31:19.656Z,64.86
2023-09-27T01:32:23.717Z,64.63
2023-09-27T01:33:27.153Z,64.69
2023-09-27T01:34:30.752Z,64.61
2023-09-27T01:35:38.578Z,64.94
2023-09-27T01:36:41.072Z,64.77
2023-09-27T01:37:43.555Z,64.94
2023-09-27T01:38:45.905Z,64.92
2023-09-27T01:39:48.385Z,65.22
2023-09-27T01:40:51.295Z,65.23
2023-09-27T01:41:53.915Z,65.27
2023-09-27T01:42:56.325Z,65.05
2023-09-27T01:43:58.705Z,65.06
2023-09-27T01:45:01.184Z,65.24
2023-09-27T01:46:04.868Z,65.40
2023-09-27T01:47:08.447Z,65.29
2023-09-27T01:48:10.919Z,65.68
2023-09-27T01:49:14.477Z,65.81
2023-09-27T01:50:20.057Z,65.56
2023-09-27T01:51:22.696Z,65.46
2023-09-27T01:52:25.017Z,65.69
2023-09-27T01:53:27.467Z,65.66
2023-09-27T01:54:29.939Z,65.70
2023-09-27T01:55:33.059Z,65.85
2023-09-27T01:56:35.515Z,66.01
2023-09-27T01:57:37.939Z,65.84
2023-09-27T01:58:40.333Z,66.19
2023-09-27T01:59:42.708Z,66.19
2023-09-27T02:00:46.096Z,66.38
2023-09-27T02:01:48.964Z,66.13
2023-09-27T02:02:57.207Z,65.96
2023-09-27T02:03:59.858Z,65.86
2023-09-27T02:05:05.355Z,66.00
2023-09-27T02:06:09.874Z,65.87
2023-09-27T02:07:13.440Z,65.96
2023-09-27T02:08:17.818Z,66.03
2023-09-27T02:09:26.149Z,66.07
2023-09-27T02:10:28.596Z,66.17
2023-09-27T02:11:32.686Z,66.06
2023-09-27T02:12:35.423Z,66.33
2023-09-27T02:13:39.066Z,66.15
2023-09-27T02:14:41.729Z,66.27
2023-09-27T02:15:44.121Z,66.29
2023-09-27T02:16:50.029Z,66.23
2023-09-27T02:17:53.066Z,66.00
2023-09-27T02:18:55.806Z,66.36
2023-09-27T02:19:58.346Z,66.42
2023-09-27T02:21:01.566Z,66.05
2023-09-27T02:22:05.374Z,66.25
2023-09-27T02:23:09.475Z,66.56
2023-09-27T02:24:14.549Z,66.16
2023-09-27T02:25:18.811Z,66.38
2023-09-27T02:26:21.343Z,66.54
2023-09-27T02:27:24.821Z,66.32
2023-09-27T02:28:30.248Z,66.38
2023-09-27T02:29:35.394Z,66.51
2023-09-27T02:30:39.518Z,66.48
2023-09-27T02:31:42.712Z,66.27
2023-09-27T02:32:49.089Z,66.57
2023-09-27T02:33:51.551Z,66.59
2023-09-27T02:34:55.317Z,66.70
2023-09-27T02:35:59.099Z,66.65
2023-09-27T02:37:01.892Z,66.43
2023-09-27T02:38:07.997Z,66.96
2023-09-27T02:39:12.851Z,66.82
2023-09-27T02:40:15.837Z,67.00
2023-09-27T02:41:18.405Z,66.91
2023-09-27T02:42:21.559Z,66.95
2023-09-27T02:43:24.000Z,66.86
2023-09-27T02:44:26.633Z,66.84
2023-09-27T02:45:29.118Z,66.87
2023-09-27T02:46:31.524Z,66.85
2023-09-27T02:47:34.066Z,67.02
2023-09-27T02:48:37.388Z,66.68
2023-09-27T02:49:39.811Z,66.64
2023-09-27T02:50:51.169Z,66.78
2023-09-27T02:51:54.465Z,66.36
2023-09-27T02:52:58.181Z,66.76
2023-09-27T02:54:01.638Z,66.40
2023-09-27T02:55:04.146Z,66.45
2023-09-27T02:56:06.590Z,66.62
2023-09-27T02:57:08.982Z,66.79
2023-09-27T02:58:11.752Z,66.96
2023-09-27T02:59:14.689Z,66.53
2023-09-27T03:00:17.293Z,66.69
2023-09-27T03:01:20.158Z,66.39
2023-09-27T03:02:25.088Z,66.29
2023-09-27T03:03:30.268Z,66.46
2023-09-27T03:04:34.009Z,66.43
2023-09-27T03:05:38.162Z,66.28
2023-09-27T03:06:43.297Z,66.22
2023-09-27T03:07:47.149Z,66.56
2023-09-27T03:08:49.683Z,66.37
2023-09-27T03:09:53.898Z,66.21
2023-09-27T03:10:57.070Z,66.40
2023-09-27T03:11:59.741Z,66.19
2023-09-27T03:13:03.445Z,66.06
2023-09-27T03:14:06.340Z,66.23
2023-09-27T03:15:13.907Z,66.20
2023-09-27T03:16:18.233Z,66.05
2023-09-27T03:17:26.624Z,66.40
2023-09-27T03:18:29.008Z,66.13
2023-09-27T03:19:31.466Z,66.03
2023-09-27T03:20:38.223Z,66.29
2023-09-27T03:21:40.690Z,66.10
2023-09-27T03:22:44.478Z,66.34
2023-09-27T03:23:46.911Z,66.31
2023-09-27T03:24:49.570Z,66.18
2023-09-27T03:25:54.373Z,66.34
2023-09-27T03:26:58.649Z,66.36
2023-09-27T03:28:01.114Z,66.25
2023-09-27T03:29:04.139Z,66.38
2023-09-27T03:30:10.191Z,66.70
2023-09-27T03:31:14.597Z,66.52
2023-09-27T03:32:17.073Z,66.83
2023-09-27T03:33:22.121Z,66.51
2023-09-27T03:34:24.427Z,66.62
2023-09-27T03:35:26.849Z,66.62
2023-09-27T03:36:29.828Z,66.63
2023-09-27T03:37:34.095Z,66.66
2023-09-27T03:38:38.021Z,66.90
2023-09-27T03:39:42.930Z,66.58
2023-09-27T03:40:45.629Z,66.78
2023-09-27T03:41:53.013Z,66.51
2023-09-27T03:42:57.226Z,67.01
2023-09-27T03:44:01.583Z,66.91
2023-09-27T03:45:04.381Z,66.84
2023-09-27T03:46:06.939Z,66.82
2023-09-27T03:47:10.107Z,67.00
2023-09-27T03:48:13.882Z,66.84
2023-09-27T03:49:16.380Z,67.11
2023-09-27T03:50:19.365Z,66.97
2023-09-27T03:51:29.115Z,67.29
2023-09-27T03:52:31.621Z,66.93
2023-09-27T03:53:35.089Z,66.98
2023-09-27T03:54:37.487Z,67.10
2023-09-27T03:55:40.743Z,66.95
2023-09-27T03:56:45.339Z,67.43
2023-09-27T03:57:49.599Z,67.22
2023-09-27T03:58:53.772Z,67.43
2023-09-27T03:59:57.269Z,67.33
2023-09-27T04:00:59.820Z,67.24
2023-09-27T04:02:02.892Z,67.38
2023-09-27T04:03:05.636Z,67.65
2023-09-27T04:04:09.502Z,67.68
2023-09-27T04:05:13.735Z,67.73
2023-09-27T04:06:16.618Z,67.46
2023-09-27T04:07:22.367Z,67.69
2023-09-27T04:08:24.800Z,67.46
2023-09-27T04:09:27.158Z,67.77
2023-09-27T04:10:30.416Z,67.47
2023-09-27T04:11:32.941Z,67.65
2023-09-27T04:12:36.303Z,67.95
2023-09-27T04:13:38.899Z,67.93
2023-09-27T04:14:42.853Z,67.45
2023-09-27T04:15:46.172Z,67.54
2023-09-27T04:16:48.575Z,67.95
2023-09-27T04:17:51.065Z,67.71
2023-09-27T04:18:53.634Z,67.71
2023-09-27T04:19:56.666Z,67.64
2023-09-27T04:21:08.823Z,67.69
2023-09-27T04:22:11.195Z,67.46
2023-09-27T04:23:13.715Z,67.65
2023-09-27T04:24:17.452Z,67.39
2023-09-27T04:25:20.538Z,67.63
2023-09-27T04:26:26.288Z,67.52
2023-09-27T04:27:30.132Z,67.23
2023-09-27T04:28:37.098Z,67.29
2023-09-27T04:29:47.415Z,67.33
2023-09-27T04:30:50.408Z,67.07
2023-09-27T04:31:54.766Z,67.05
2023-09-27T04:32:58.593Z,67.36
2023-09-27T04:34:05.557Z,67.16
2023-09-27T04:35:10.813Z,67.49
2023-09-27T04:36:19.321Z,67.31
2023-09-27T04:37:24.636Z,67.67
2023-09-27T04:38:27.151Z,67.43
2023-09-27T04:39:32.410Z,67.37
2023-09-27T04:40:34.746Z,67.65
2023-09-27T04:41:37.484Z,67.60
2023-09-27T04:42:41.187Z,67.72
2023-09-27T04:43:44.064Z,67.35
2023-09-27T04:44:47.502Z,67.84
2023-09-27T04:45:50.706Z,67.63
2023-09-27T04:46:54.845Z,67.75
2023-09-27T04:47:57.677Z,67.95
2023-09-27T04:49:00.413Z,67.55
2023-09-27T04:50:04.836Z,67.67
2023-09-27T04:51:08.684Z,67.76
2023-09-27T04:52:11.101Z,67.78
2023-09-27T04:53:15.899Z,68.05
2023-09-27T04:54:18.716Z,67.90
2023-09-27T04:55:21.113Z,67.81
2023-09-27T04:56:24.202Z,67.95
2023-09-27T04:57:26.680Z,68.31
2023-09-27T04:58:29.030Z,68.05
2023-09-27T04:59:31.578Z,68.07
2023-09-27T05:00:35.363Z,68.19
2023-09-27T05:01:37.798Z,68.44
2023-09-27T05:02:42.444Z,68.25
2023-09-27T05:03:45.120Z,68.26
2023-09-27T05:04:48.691Z,68.47
2023-09-27T05:05:54.534Z,68.46
2023-09-27T05:06:56.949Z,68.42
2023-09-27T05:07:59.476Z,68.62
2023-09-27T05:09:02.306Z,68.06
2023-09-27T05:10:05.302Z,68.65
2023-09-27T05:11:07.964Z,68.29
2023-09-27T05:12:10.542Z,68.29
2023-09-27T05:13:12.939Z,68.32
2023-09-27T05:14:15.342Z,68.64
2023-09-27T05:15:19.012Z,68.57
2023-09-27T05:16:21.507Z,68.40
2023-09-27T05:17:25.441Z,68.26
2023-09-27T05:18:28.945Z,68.36
2023-09-27T05:19:31.555Z,68.58
2023-09-27T05:20:38.040Z,68.71
2023-09-27T05:21:41.228Z,68.42
2023-09-27T05:22:49.853Z,68.43
2023-09-27T05:23:53.336Z,68.90
2023-09-27T05:24:55.755Z,68.41
2023-09-27T05:25:58.665Z,68.62
2023-09-27T05:27:05.768Z,68.78
2023-09-27T05:28:08.637Z,68.58
2023-09-27T05:29:15.716Z,68.81
2023-09-27T05:30:21.400Z,68.91
2023-09-27T05:31:24.413Z,68.83
2023-09-27T05:32:26.863Z,68.81
2023-09-27T05:33:29.992Z,69.09
2023-09-27T05:34:35.092Z,69.15
2023-09-27T05:35:37.569Z,69.41
2023-09-27T05:36:41.969Z,69.14
2023-09-27T05:37:46.260Z,69.42
2023-09-27T05:38:49.819Z,69.39
2023-09-27T05:39:52.262Z,69.67
2023-09-27T05:40:55.187Z,69.87
2023-09-27T05:41:57.527Z,69.99
2023-09-27T05:43:01.464Z,69.95
2023-09-27T05:44:05.524Z,69.99
2023-09-27T05:45:28.612Z,70.19
2023-09-27T05:46:31.142Z,70.38
2023-09-27T05:47:34.661Z,70.58
2023-09-27T05:48:38.244Z,70.56
2023-09-27T05:49:41.918Z,71.12
2023-09-27T05:50:48.838Z,71.19
2023-09-27T05:51:52.568Z,70.98
2023-09-27T05:52:56.438Z,70.94
2023-09-27T05:54:00.879Z,71.49
2023-09-27T05:55:07.040Z,71.31
2023-09-27T05:56:09.729Z,71.31
2023-09-27T05:57:12.328Z,70.93
2023-09-27T05:58:14.730Z,70.76
2023-09-27T05:59:17.350Z,70.59
2023-09-27T06:00:27.807Z,70.50
2023-09-27T06:01:33.291Z,70.37
2023-09-27T06:02:35.869Z,69.82
2023-09-27T06:03:40.251Z,69.71
2023-09-27T06:04:42.820Z,69.19
2023-09-27T06:05:46.584Z,69.38
2023-09-27T06:06:50.815Z,69.65
2023-09-27T06:07:54.339Z,69.59
2023-09-27T06:09:04.303Z,69.31
2023-09-27T06:10:11.072Z,68.77
2023-09-27T06:11:13.488Z,68.62
2023-09-27T06:12:19.021Z,68.38
2023-09-27T06:13:21.757Z,68.16
2023-09-27T06:14:25.464Z,68.08
2023-09-27T06:15:29.209Z,67.46
2023-09-27T06:16:31.810Z,67.28
2023-09-27T06:17:36.410Z,66.64
2023-09-27T06:18:39.903Z,66.60
2023-09-27T06:19:43.357Z,66.44
2023-09-27T06:20:48.771Z,65.70
2023-09-27T06:21:54.116Z,65.12
2023-09-27T06:22:59.085Z,65.29
2023-09-27T06:24:02.533Z,65.05
2023-09-27T06:25:07.481Z,64.47
2023-09-27T06:26:11.987Z,63.95
2023-09-27T06:27:14.580Z,63.53
2023-09-27T06:28:17.383Z,63.61
2023-09-27T06:29:21.636Z,62.94
2023-09-27T06:30:24.774Z,63.10
2023-09-27T06:31:27.147Z,62.50
2023-09-27T06:32:29.672Z,62.33
2023-09-27T06:33:32.243Z,61.77
2023-09-27T06:34:36.802Z,61.19
2023-09-27T06:35:39.961Z,61.09
2023-09-27T06:36:44.042Z,60.53
2023-09-27T06:37:50.857Z,60.45
2023-09-27T06:38:53.748Z,60.56
2023-09-27T06:39:56.580Z,59.95
2023-09-27T06:40:59.062Z,59.96
2023-09-27T06:42:01.424Z,59.41
2023-09-27T06:43:06.345Z,58.89
2023-09-27T06:44:08.823Z,58.83
2023-09-27T06:45:11.805Z,58.54
2023-09-27T06:46:17.550Z,58.07
2023-09-27T06:47:20.371Z,57.23
2023-09-27T06:48:24.951Z,56.67
2023-09-27T06:49:27.444Z,56.75
2023-09-27T06:50:29.852Z,56.38
2023-09-27T06:51:32.866Z,56.41
2023-09-27T06:52:36.306Z,55.99
2023-09-27T06:53:39.812Z,55.64
2023-09-27T06:54:42.255Z,55.45
2023-09-27T06:55:50.693Z,55.19
2023-09-27T06:56:53.113Z,54.60
2023-09-27T06:57:55.555Z,54.77
2023-09-27T06:58:58.040Z,54.13
2023-09-27T07:00:00.415Z,54.09
2023-09-27T07:01:02.960Z,53.79
2023-09-27T07:02:05.457Z,53.44
2023-09-27T07:03:08.325Z,52.92
2023-09-27T07:04:10.934Z,52.63
2023-09-27T07:05:13.463Z,52.07
2023-09-27T07:06:16.420Z,52.41
2023-09-27T07:07:18.780Z,52.04
2023-09-27T07:08:22.212Z,51.73
2023-09-27T07:09:24.682Z,51.49
2023-09-27T07:10:27.121Z,51.21
2023-09-27T07:11:29.630Z,50.74
2023-09-27T07:12:32.360Z,50.77
2023-09-27T07:13:35.785Z,50.83
2023-09-27T07:14:38.268Z,50.73
2023-09-27T07:15:41.054Z,50.93
2023-09-27T07:16:58.454Z,50.67
2023-09-27T07:19:09.054Z,49.93
2023-09-27T07:20:34.500Z,49.53
2023-09-27T07:21:38.373Z,49.09
2023-09-27T07:22:40.754Z,48.80
2023-09-27T07:23:43.578Z,48.75
2023-09-27T07:24:46.404Z,48.53
2023-09-27T07:25:51.980Z,48.19
2023-09-27T07:26:54.515Z,48.38
2023-09-27T07:27:57.725Z,48.07
2023-09-27T07:29:00.848Z,47.96
2023-09-27T07:30:04.849Z,47.95
2023-09-27T07:31:07.560Z,47.74
2023-09-27T07:32:10.098Z,48.03
2023-09-27T07:33:13.495Z,47.60
2023-09-27T07:34:16.313Z,47.43
2023-09-27T07:35:19.806Z,47.05
2023-09-27T07:36:25.673Z,46.80
2023-09-27T07:37:28.130Z,46.53
2023-09-27T07:38:30.961Z,46.12
2023-09-27T07:39:33.963Z,45.71
2023-09-27T07:40:36.976Z,45.72
2023-09-27T07:41:40.122Z,45.39
2023-09-27T07:42:44.054Z,45.13
2023-09-27T07:43:49.225Z,45.23
2023-09-27T07:44:52.226Z,45.41
2023-09-27T07:45:56.339Z,45.24
2023-09-27T07:47:01.167Z,45.42
2023-09-27T07:48:04.023Z,45.13
2023-09-27T07:49:06.534Z,44.82
2023-09-27T07:50:09.190Z,44.55
2023-09-27T07:51:16.549Z,44.21
2023-09-27T07:52:19.031Z,44.49
2023-09-27T07:53:21.598Z,44.57
2023-09-27T07:54:25.462Z,44.28
2023-09-27T07:55:28.403Z,44.06
2023-09-27T07:56:38.309Z,43.50
2023-09-27T07:57:45.314Z,43.28
2023-09-27T07:58:50.706Z,43.28
2023-09-27T07:59:53.924Z,43.05
2023-09-27T08:00:56.848Z,43.05
2023-09-27T08:02:00.919Z,42.68
2023-09-27T08:03:04.534Z,42.56
2023-09-27T08:04:12.733Z,42.71
2023-09-27T08:05:15.874Z,42.40
2023-09-27T08:06:19.031Z,42.39
2023-09-27T08:07:21.700Z,42.03
2023-09-27T08:08:24.045Z,42.08
2023-09-27T08:09:40.454Z,41.83
2023-09-27T08:10:45.674Z,42.16
2023-09-27T08:11:48.917Z,42.12
2023-09-27T08:12:51.397Z,41.88
2023-09-27T08:13:55.251Z,41.81
2023-09-27T08:15:02.005Z,41.64
2023-09-27T08:16:07.636Z,41.90
2023-09-27T08:17:11.536Z,42.08
2023-09-27T08:18:14.271Z,41.65
2023-09-27T08:19:17.305Z,41.41
2023-09-27T08:20:20.482Z,41.49
2023-09-27T08:21:22.835Z,41.60
2023-09-27T08:22:25.322Z,41.58
2023-09-27T08:23:27.762Z,41.67
2023-09-27T08:24:30.165Z,41.06
2023-09-27T08:25:32.670Z,41.25
2023-09-27T08:26:36.899Z,41.24
2023-09-27T08:27:39.322Z,41.69
2023-09-27T08:28:41.982Z,41.24
2023-09-27T08:29:45.038Z,41.31
2023-09-27T08:30:48.471Z,41.01
2023-09-27T08:31:52.764Z,40.88
2023-09-27T08:32:55.281Z,41.26
2023-09-27T08:34:01.284Z,41.13
2023-09-27T08:35:03.902Z,41.10
2023-09-27T08:36:07.573Z,41.15
2023-09-27T08:37:13.072Z,40.91
2023-09-27T08:38:17.096Z,40.66
2023-09-27T08:39:19.986Z,40.38
2023-09-27T08:40:22.994Z,40.36
2023-09-27T08:41:25.484Z,40.07
2023-09-27T08:42:29.836Z,40.40
2023-09-27T08:43:34.214Z,40.02
2023-09-27T08:44:38.420Z,40.60
2023-09-27T08:45:41.264Z,39.99
2023-09-27T08:46:48.352Z,39.63
2023-09-27T08:47:52.928Z,39.75
2023-09-27T08:48:57.888Z,39.85
2023-09-27T08:50:00.537Z,39.72
2023-09-27T08:51:06.512Z,39.78
2023-09-27T08:52:10.780Z,39.60
2023-09-27T08:53:14.299Z,39.39
2023-09-27T08:54:18.977Z,39.69
2023-09-27T08:55:21.495Z,39.59
2023-09-27T08:56:25.921Z,39.53
2023-09-27T08:57:29.756Z,39.63
2023-09-27T08:58:33.258Z,39.57
2023-09-27T08:59:36.425Z,39.78
2023-09-27T09:00:43.247Z,39.59
2023-09-27T09:01:46.489Z,39.46
2023-09-27T09:02:53.872Z,39.38
2023-09-27T09:03:56.734Z,39.27
2023-09-27T09:04:59.529Z,39.32
2023-09-27T09:06:02.690Z,39.46
2023-09-27T09:07:07.828Z,39.23
2023-09-27T09:08:10.769Z,39.49
2023-09-27T09:09:13.299Z,39.63
2023-09-27T09:10:17.495Z,39.72
2023-09-27T09:11:20.523Z,39.36
2023-09-27T09:12:24.492Z,39.41
2023-09-27T09:13:26.816Z,39.39
2023-09-27T09:14:44.514Z,39.42
2023-09-27T09:15:50.137Z,39.31
2023-09-27T09:16:55.802Z,39.26
2023-09-27T09:18:01.316Z,39.22
2023-09-27T09:19:41.773Z,39.21
2023-09-27T09:20:52.856Z,38.89
2023-09-27T09:22:09.852Z,38.95
2023-09-27T09:23:14.235Z,38.53
2023-09-27T09:24:21.849Z,38.42
2023-09-27T09:25:25.797Z,38.04
2023-09-27T09:26:30.806Z,37.79
2023-09-27T09:27:34.358Z,37.98
2023-09-27T09:28:57.377Z,37.89
2023-09-27T09:30:03.302Z,37.32
2023-09-27T09:31:05.749Z,37.93
2023-09-27T09:32:10.104Z,37.58
2023-09-27T09:33:21.449Z,37.83
2023-09-27T09:34:25.202Z,37.95
2023-09-27T09:35:36.459Z,37.74
2023-09-27T09:36:39.029Z,37.74
2023-09-27T09:37:43.537Z,38.01
2023-09-27T09:38:46.849Z,37.76
2023-09-27T09:39:51.871Z,37.71
2023-09-27T09:40:55.761Z,37.70
2023-09-27T09:42:01.771Z,37.71
2023-09-27T09:43:05.839Z,37.68
2023-09-27T09:44:24.488Z,38.20
2023-09-27T09:45:28.301Z,37.79
2023-09-27T09:46:31.483Z,37.54
2023-09-27T09:47:38.750Z,37.54
2023-09-27T09:48:41.843Z,37.73
2023-09-27T09:49:51.545Z,37.51
2023-09-27T09:51:09.675Z,37.97
2023-09-27T09:52:13.343Z,37.66
2023-09-27T09:53:17.634Z,37.90
2023-09-27T09:54:35.349Z,37.72
2023-09-27T09:56:59.368Z,37.99
2023-09-27T09:58:30.979Z,38.25
2023-09-27T09:59:43.081Z,38.05
2023-09-27T10:00:51.107Z,37.65
2023-09-27T10:01:56.053Z,37.79
2023-09-27T10:03:09.472Z,38.07
2023-09-27T10:04:13.326Z,37.41
2023-09-27T10:05:19.865Z,37.33
2023-09-27T10:06:32.461Z,37.75
2023-09-27T10:07:40.957Z,38.02
2023-09-27T10:08:45.109Z,37.48
2023-09-27T10:09:48.798Z,38.09
2023-09-27T10:10:52.155Z,38.07
2023-09-27T10:11:56.008Z,37.29
2023-09-27T10:13:00.023Z,37.51
2023-09-27T10:14:03.718Z,37.79
2023-09-27T10:15:08.904Z,37.80
2023-09-27T10:16:11.473Z,37.41
2023-09-27T10:17:24.494Z,37.91
2023-09-27T10:18:31.347Z,38.01
2023-09-27T10:19:35.148Z,37.77
2023-09-27T10:20:58.829Z,37.85
2023-09-27T10:22:06.344Z,38.18
2023-09-27T10:23:12.443Z,38.06
2023-09-27T10:24:27.904Z,38.38
2023-09-27T10:25:34.694Z,37.95
2023-09-27T10:26:39.720Z,38.21
2023-09-27T10:28:05.017Z,38.48
2023-09-27T10:29:09.462Z,38.57
2023-09-27T10:30:13.329Z,38.68
2023-09-27T10:31:21.761Z,38.37
2023-09-27T10:32:24.823Z,38.56
2023-09-27T10:33:27.605Z,38.30
2023-09-27T10:34:29.920Z,38.42
2023-09-27T10:35:34.517Z,38.69
2023-09-27T10:36:40.695Z,38.70
2023-09-27T10:38:01.046Z,38.68
2023-09-27T10:39:04.878Z,38.60
2023-09-27T10:40:22.980Z,38.97
2023-09-27T10:41:34.808Z,38.83
2023-09-27T10:42:44.226Z,39.08
2023-09-27T10:43:47.615Z,38.75
2023-09-27T10:44:51.663Z,38.67
2023-09-27T10:45:57.551Z,38.42
2023-09-27T10:47:04.995Z,38.56
2023-09-27T10:48:20.592Z,38.67
2023-09-27T10:49:28.235Z,38.69
2023-09-27T10:50:31.531Z,38.77
2023-09-27T10:51:38.208Z,38.88
2023-09-27T10:52:45.198Z,39.04
2023-09-27T10:53:47.733Z,39.04
2023-09-27T10:54:50.617Z,38.76
2023-09-27T10:55:53.553Z,39.03
2023-09-27T10:56:58.626Z,39.09
2023-09-27T10:58:03.236Z,39.17
2023-09-27T10:59:09.518Z,39.13
2023-09-27T11:00:15.419Z,38.57
2023-09-27T11:01:29.381Z,38.86
2023-09-27T11:02:32.963Z,39.04
2023-09-27T11:03:36.796Z,39.19
2023-09-27T11:04:41.307Z,39.23
2023-09-27T11:05:45.338Z,38.73
2023-09-27T11:06:47.693Z,39.13
2023-09-27T11:07:52.213Z,39.15
2023-09-27T11:09:07.848Z,38.92
2023-09-27T11:10:10.617Z,38.82
2023-09-27T11:11:13.301Z,39.11
2023-09-27T11:12:23.258Z,39.12
2023-09-27T11:13:27.068Z,39.12
2023-09-27T11:14:34.699Z,38.99
2023-09-27T11:15:47.742Z,38.63
2023-09-27T11:16:50.255Z,38.78
2023-09-27T11:17:57.398Z,38.78
2023-09-27T11:19:00.761Z,38.90
2023-09-27T11:20:15.387Z,38.79
2023-09-27T11:21:17.897Z,38.81
2023-09-27T11:22:27.407Z,38.70
2023-09-27T11:23:31.252Z,38.50
2023-09-27T11:24:41.419Z,38.63
2023-09-27T11:25:45.570Z,38.52
2023-09-27T11:26:49.640Z,38.62
2023-09-27T11:27:52.383Z,38.93
2023-09-27T11:29:06.404Z,38.95
2023-09-27T11:30:11.338Z,38.79
2023-09-27T11:31:24.915Z,38.60
2023-09-27T11:32:28.714Z,38.60
2023-09-27T11:33:35.331Z,38.50
2023-09-27T11:34:39.077Z,38.73
2023-09-27T11:35:48.795Z,38.41
2023-09-27T11:36:53.390Z,38.22
2023-09-27T11:38:29.636Z,38.76
2023-09-27T11:40:01.045Z,38.81
2023-09-27T11:41:08.984Z,37.93
2023-09-27T11:42:11.702Z,37.90
2023-09-27T11:43:16.437Z,37.94
2023-09-27T11:44:29.889Z,38.17
2023-09-27T11:45:45.283Z,38.04
2023-09-27T11:46:53.684Z,37.83
2023-09-27T11:47:59.186Z,37.63
2023-09-27T11:49:12.604Z,37.54
2023-09-27T11:50:19.470Z,37.63
2023-09-27T11:51:23.265Z,37.26
2023-09-27T11:52:31.006Z,37.54
2023-09-27T11:53:33.419Z,37.12
2023-09-27T11:54:38.517Z,37.17
2023-09-27T11:55:41.369Z,37.19
2023-09-27T11:56:48.027Z,37.41
2023-09-27T11:57:52.612Z,37.54
2023-09-27T11:58:56.083Z,37.29
2023-09-27T11:59:58.844Z,37.47
2023-09-27T12:01:04.017Z,37.70
2023-09-27T12:02:20.594Z,37.60
2023-09-27T12:03:32.156Z,37.75
2023-09-27T12:04:34.753Z,37.83
2023-09-27T12:05:39.252Z,37.63
2023-09-27T12:06:42.632Z,37.84
2023-09-27T12:07:45.722Z,37.49
2023-09-27T12:08:48.167Z,37.50
2023-09-27T12:09:51.969Z,36.87
2023-09-27T12:10:54.341Z,37.14
2023-09-27T12:11:58.860Z,37.02
2023-09-27T12:13:02.883Z,36.36
2023-09-27T12:14:05.616Z,35.71
2023-09-27T12:15:08.787Z,35.06
2023-09-27T12:16:11.298Z,34.83
2023-09-27T12:17:15.208Z,34.16
2023-09-27T12:18:17.731Z,34.27
2023-09-27T12:19:22.402Z,33.84
2023-09-27T12:20:40.285Z,34.18
2023-09-27T12:21:50.120Z,34.22
2023-09-27T12:22:53.120Z,34.14
2023-09-27T12:23:55.687Z,34.55
2023-09-27T12:24:58.366Z,34.02
2023-09-27T12:26:00.734Z,34.16
2023-09-27T12:27:05.135Z,34.28
2023-09-27T12:28:08.451Z,33.66
2023-09-27T12:29:12.418Z,33.78
2023-09-27T12:30:16.183Z,33.91
2023-09-27T12:31:19.185Z,34.01
2023-09-27T12:32:21.751Z,33.63
2023-09-27T12:33:25.597Z,33.68
2023-09-27T12:34:30.801Z,33.61
2023-09-27T12:35:34.186Z,33.78
2023-09-27T12:36:36.691Z,33.46
2023-09-27T12:37:39.780Z,33.60
2023-09-27T12:38:43.730Z,33.55
2023-09-27T12:39:46.151Z,33.58
2023-09-27T12:40:49.913Z,33.37
2023-09-27T12:41:52.629Z,33.22
2023-09-27T12:42:55.515Z,33.47
2023-09-27T12:44:01.829Z,33.88
2023-09-27T12:45:06.893Z,34.02
2023-09-27T12:46:10.737Z,34.41
2023-09-27T12:47:13.276Z,34.53
2023-09-27T12:48:17.189Z,34.51
2023-09-27T12:49:20.134Z,34.73
2023-09-27T12:50:28.236Z,34.76
2023-09-27T12:51:35.522Z,34.97
2023-09-27T12:52:45.569Z,34.77
2023-09-27T12:53:48.371Z,34.46
2023-09-27T12:54:52.581Z,34.43
2023-09-27T12:55:55.098Z,34.33
2023-09-27T12:57:00.561Z,34.73
2023-09-27T12:58:03.305Z,34.58
2023-09-27T12:59:05.873Z,34.36
2023-09-27T13:00:10.927Z,34.67
2023-09-27T13:01:17.950Z,34.41
2023-09-27T13:02:20.401Z,34.21
2023-09-27T13:03:23.731Z,33.72
2023-09-27T13:04:26.297Z,33.77
2023-09-27T13:05:28.864Z,33.86
2023-09-27T13:06:32.168Z,33.67
2023-09-27T13:07:34.573Z,33.04
2023-09-27T13:08:38.657Z,33.04
2023-09-27T13:09:42.455Z,32.87
2023-09-27T13:10:44.869Z,33.26
2023-09-27T13:11:47.346Z,33.55
2023-09-27T13:12:50.769Z,33.24
2023-09-27T13:13:53.214Z,33.71
2023-09-27T13:14:57.664Z,33.79
2023-09-27T13:16:00.340Z,33.68
2023-09-27T13:17:02.957Z,33.68
2023-09-27T13:18:05.707Z,33.13
2023-09-27T13:19:09.404Z,33.60
2023-09-27T13:20:12.043Z,33.45
2023-09-27T13:21:14.786Z,33.53
2023-09-27T13:22:17.117Z,33.04
2023-09-27T13:23:20.038Z,33.60
2023-09-27T13:24:22.444Z,33.71
2023-09-27T13:25:25.019Z,33.61
2023-09-27T13:26:27.542Z,33.42
2023-09-27T13:27:30.504Z,33.34
2023-09-27T13:28:32.920Z,33.38
2023-09-27T13:29:35.366Z,33.45
2023-09-27T13:30:40.938Z,33.42
2023-09-27T13:31:43.487Z,33.77
2023-09-27T13:32:46.203Z,33.60
2023-09-27T13:33:58.873Z,33.94
2023-09-27T13:35:10.588Z,33.83
2023-09-27T13:36:13.947Z,34.05
2023-09-27T13:37:21.085Z,34.25
2023-09-27T13:38:24.107Z,34.26
2023-09-27T13:39:30.869Z,34.29
2023-09-27T13:40:33.871Z,34.36
2023-09-27T13:41:43.016Z,34.25
2023-09-27T13:42:45.595Z,33.70
2023-09-27T13:43:49.008Z,33.80
2023-09-27T13:44:54.097Z,33.85
2023-09-27T13:45:56.851Z,33.84
2023-09-27T13:46:59.298Z,33.95
2023-09-27T13:48:02.145Z,34.13
2023-09-27T13:49:06.350Z,34.10
2023-09-27T13:50:10.666Z,33.07
2023-09-27T13:51:14.329Z,33.41
2023-09-27T13:52:16.739Z,33.11
2023-09-27T13:53:21.931Z,33.43
2023-09-27T13:54:25.380Z,33.53